sensor_id;sensor_type;location;lat;lon;timestamp;temperature;humidity
19397;DHT22;9834;48.076;11.878;2022-11-23T00:01:54;4.40;99.90
19397;DHT22;9834;48.076;11.878;2022-11-23T00:04:21;4.40;99.90
19397;DHT22;9834;48.076;11.878;2022-11-23T00:06:49;4.30;99.90
19397;DHT22;9834;48.076;11.878;2022-11-23T00:09:17;4.30;99.90
19397;DHT22;9834;48.076;11.878;2022-11-23T00:11:45;4.30;99.90
19397;DHT22;9834;48.076;11.878;2022-11-23T00:14:12;4.30;99.90
19397;DHT22;9834;48.076;11.878;2022-11-23T00:16:39;4.30;99.90
19397;DHT22;9834;48.076;11.878;2022-11-23T00:19:06;4.40;99.90
19397;DHT22;9834;48.076;11.878;2022-11-23T00:21:33;4.40;99.90
19397;DHT22;9834;48.076;11.878;2022-11-23T00:24:00;4.40;99.90
19397;DHT22;9834;48.076;11.878;2022-11-23T00:26:28;4.40;99.90
19397;DHT22;9834;48.076;11.878;2022-11-23T00:28:55;4.40;99.90
19397;DHT22;9834;48.076;11.878;2022-11-23T00:31:22;4.40;99.90
19397;DHT22;9834;48.076;11.878;2022-11-23T00:33:51;4.40;99.90
19397;DHT22;9834;48.076;11.878;2022-11-23T00:36:19;4.30;99.90
19397;DHT22;9834;48.076;11.878;2022-11-23T00:38:47;4.30;99.90
19397;DHT22;9834;48.076;11.878;2022-11-23T00:41:15;4.40;99.90
19397;DHT22;9834;48.076;11.878;2022-11-23T00:43:44;4.30;99.90
19397;DHT22;9834;48.076;11.878;2022-11-23T00:46:13;4.40;99.90
19397;DHT22;9834;48.076;11.878;2022-11-23T00:48:40;4.40;99.90
19397;DHT22;9834;48.076;11.878;2022-11-23T00:51:09;4.40;99.90
19397;DHT22;9834;48.076;11.878;2022-11-23T00:53:37;4.40;99.90
19397;DHT22;9834;48.076;11.878;2022-11-23T00:56:04;4.40;99.90
19397;DHT22;9834;48.076;11.878;2022-11-23T00:58:31;4.40;99.90
19397;DHT22;9834;48.076;11.878;2022-11-23T01:01:05;4.40;99.90
19397;DHT22;9834;48.076;11.878;2022-11-23T01:03:32;4.40;99.90
19397;DHT22;9834;48.076;11.878;2022-11-23T01:06:08;4.40;99.90
19397;DHT22;9834;48.076;11.878;2022-11-23T01:08:35;4.40;99.90
19397;DHT22;9834;48.076;11.878;2022-11-23T01:11:03;4.40;99.90
19397;DHT22;9834;48.076;11.878;2022-11-23T01:13:31;4.40;99.90
19397;DHT22;9834;48.076;11.878;2022-11-23T01:15:58;4.40;99.90
19397;DHT22;9834;48.076;11.878;2022-11-23T01:18:26;4.40;99.90
19397;DHT22;9834;48.076;11.878;2022-11-23T01:20:53;4.40;99.90
19397;DHT22;9834;48.076;11.878;2022-11-23T01:23:20;4.40;99.90
19397;DHT22;9834;48.076;11.878;2022-11-23T01:25:47;4.40;99.90
19397;DHT22;9834;48.076;11.878;2022-11-23T01:28:14;4.40;99.90
19397;DHT22;9834;48.076;11.878;2022-11-23T01:30:41;4.30;99.90
19397;DHT22;9834;48.076;11.878;2022-11-23T01:33:08;4.30;99.90
19397;DHT22;9834;48.076;11.878;2022-11-23T01:35:36;4.40;99.90
19397;DHT22;9834;48.076;11.878;2022-11-23T01:38:03;4.40;99.90
19397;DHT22;9834;48.076;11.878;2022-11-23T01:40:30;4.40;99.90
19397;DHT22;9834;48.076;11.878;2022-11-23T01:43:09;4.40;99.90
19397;DHT22;9834;48.076;11.878;2022-11-23T01:45:41;4.50;99.90
19397;DHT22;9834;48.076;11.878;2022-11-23T01:48:12;4.40;99.90
19397;DHT22;9834;48.076;11.878;2022-11-23T01:50:42;4.40;99.90
19397;DHT22;9834;48.076;11.878;2022-11-23T01:53:10;4.40;99.90
19397;DHT22;9834;48.076;11.878;2022-11-23T01:55:37;4.40;99.90
19397;DHT22;9834;48.076;11.878;2022-11-23T01:58:05;4.40;99.90
19397;DHT22;9834;48.076;11.878;2022-11-23T02:00:33;4.50;99.90
19397;DHT22;9834;48.076;11.878;2022-11-23T02:03:02;4.50;99.90
19397;DHT22;9834;48.076;11.878;2022-11-23T02:05:33;4.40;99.90
19397;DHT22;9834;48.076;11.878;2022-11-23T02:08:03;4.50;99.90
19397;DHT22;9834;48.076;11.878;2022-11-23T02:10:32;4.40;99.90
19397;DHT22;9834;48.076;11.878;2022-11-23T02:13:01;4.40;99.90
19397;DHT22;9834;48.076;11.878;2022-11-23T02:15:28;4.40;99.90
19397;DHT22;9834;48.076;11.878;2022-11-23T02:17:57;4.40;99.90
19397;DHT22;9834;48.076;11.878;2022-11-23T02:20:25;4.50;99.90
19397;DHT22;9834;48.076;11.878;2022-11-23T02:23:00;4.50;99.90
19397;DHT22;9834;48.076;11.878;2022-11-23T02:25:39;4.60;99.90
19397;DHT22;9834;48.076;11.878;2022-11-23T02:28:08;4.50;99.90
19397;DHT22;9834;48.076;11.878;2022-11-23T02:30:37;4.50;99.90
19397;DHT22;9834;48.076;11.878;2022-11-23T02:33:05;4.60;99.90
19397;DHT22;9834;48.076;11.878;2022-11-23T02:35:33;4.60;99.90
19397;DHT22;9834;48.076;11.878;2022-11-23T02:38:01;4.60;99.90
19397;DHT22;9834;48.076;11.878;2022-11-23T02:40:34;4.60;99.90
19397;DHT22;9834;48.076;11.878;2022-11-23T02:43:02;4.60;99.90
19397;DHT22;9834;48.076;11.878;2022-11-23T02:45:35;4.60;99.90
19397;DHT22;9834;48.076;11.878;2022-11-23T02:48:04;4.70;99.90
19397;DHT22;9834;48.076;11.878;2022-11-23T02:50:31;4.60;99.90
19397;DHT22;9834;48.076;11.878;2022-11-23T02:52:58;4.60;99.90
19397;DHT22;9834;48.076;11.878;2022-11-23T02:55:24;4.60;99.90
19397;DHT22;9834;48.076;11.878;2022-11-23T02:57:51;4.50;99.90
19397;DHT22;9834;48.076;11.878;2022-11-23T03:00:18;4.50;99.90
19397;DHT22;9834;48.076;11.878;2022-11-23T03:02:47;4.40;99.90
19397;DHT22;9834;48.076;11.878;2022-11-23T03:05:14;4.40;99.90
19397;DHT22;9834;48.076;11.878;2022-11-23T03:07:40;4.40;99.90
19397;DHT22;9834;48.076;11.878;2022-11-23T03:10:09;4.30;99.90
19397;DHT22;9834;48.076;11.878;2022-11-23T03:12:36;4.40;99.90
19397;DHT22;9834;48.076;11.878;2022-11-23T03:15:03;4.30;99.90
19397;DHT22;9834;48.076;11.878;2022-11-23T03:17:30;4.30;99.90
19397;DHT22;9834;48.076;11.878;2022-11-23T03:19:58;4.30;99.90
19397;DHT22;9834;48.076;11.878;2022-11-23T03:22:25;4.20;99.90
19397;DHT22;9834;48.076;11.878;2022-11-23T03:24:52;4.20;99.90
19397;DHT22;9834;48.076;11.878;2022-11-23T03:27:19;4.10;99.90
19397;DHT22;9834;48.076;11.878;2022-11-23T03:29:46;4.10;99.90
19397;DHT22;9834;48.076;11.878;2022-11-23T03:32:13;4.20;99.90
19397;DHT22;9834;48.076;11.878;2022-11-23T03:34:40;4.20;99.90
19397;DHT22;9834;48.076;11.878;2022-11-23T03:37:08;4.20;99.90
19397;DHT22;9834;48.076;11.878;2022-11-23T03:39:35;4.20;99.90
19397;DHT22;9834;48.076;11.878;2022-11-23T03:42:02;4.30;99.90
19397;DHT22;9834;48.076;11.878;2022-11-23T03:44:28;4.20;99.90
19397;DHT22;9834;48.076;11.878;2022-11-23T03:46:55;4.20;99.90
19397;DHT22;9834;48.076;11.878;2022-11-23T03:49:24;4.30;99.90
19397;DHT22;9834;48.076;11.878;2022-11-23T03:51:50;4.30;99.90
19397;DHT22;9834;48.076;11.878;2022-11-23T03:54:19;4.30;99.90
19397;DHT22;9834;48.076;11.878;2022-11-23T03:56:46;4.30;99.90
19397;DHT22;9834;48.076;11.878;2022-11-23T03:59:12;4.20;99.90
19397;DHT22;9834;48.076;11.878;2022-11-23T04:01:39;4.10;99.90
19397;DHT22;9834;48.076;11.878;2022-11-23T04:04:06;4.20;99.90
19397;DHT22;9834;48.076;11.878;2022-11-23T04:06:33;4.20;99.90
19397;DHT22;9834;48.076;11.878;2022-11-23T04:09:00;4.20;99.90
19397;DHT22;9834;48.076;11.878;2022-11-23T04:11:28;4.10;99.90
19397;DHT22;9834;48.076;11.878;2022-11-23T04:13:55;4.10;99.90
19397;DHT22;9834;48.076;11.878;2022-11-23T04:16:22;4.10;99.90
19397;DHT22;9834;48.076;11.878;2022-11-23T04:18:49;4.20;99.90
19397;DHT22;9834;48.076;11.878;2022-11-23T04:21:16;4.10;99.90
19397;DHT22;9834;48.076;11.878;2022-11-23T04:23:43;4.10;99.90
19397;DHT22;9834;48.076;11.878;2022-11-23T04:26:10;4.00;99.90
19397;DHT22;9834;48.076;11.878;2022-11-23T04:28:38;4.00;99.90
19397;DHT22;9834;48.076;11.878;2022-11-23T04:31:06;4.00;99.90
19397;DHT22;9834;48.076;11.878;2022-11-23T04:33:32;3.90;99.90
19397;DHT22;9834;48.076;11.878;2022-11-23T04:35:59;3.90;99.90
19397;DHT22;9834;48.076;11.878;2022-11-23T04:38:26;4.00;99.90
19397;DHT22;9834;48.076;11.878;2022-11-23T04:40:53;3.90;99.90
19397;DHT22;9834;48.076;11.878;2022-11-23T04:43:20;3.90;99.90
19397;DHT22;9834;48.076;11.878;2022-11-23T04:45:48;3.90;99.90
19397;DHT22;9834;48.076;11.878;2022-11-23T04:48:15;3.80;99.90
19397;DHT22;9834;48.076;11.878;2022-11-23T04:50:42;3.80;99.90
19397;DHT22;9834;48.076;11.878;2022-11-23T04:53:09;3.80;99.90
19397;DHT22;9834;48.076;11.878;2022-11-23T04:55:36;3.70;99.90
19397;DHT22;9834;48.076;11.878;2022-11-23T04:58:03;3.70;99.90
19397;DHT22;9834;48.076;11.878;2022-11-23T05:00:30;3.70;99.90
19397;DHT22;9834;48.076;11.878;2022-11-23T05:02:59;3.70;99.90
19397;DHT22;9834;48.076;11.878;2022-11-23T05:05:26;3.70;99.90
19397;DHT22;9834;48.076;11.878;2022-11-23T05:07:53;3.60;99.90
19397;DHT22;9834;48.076;11.878;2022-11-23T05:10:20;3.60;99.90
19397;DHT22;9834;48.076;11.878;2022-11-23T05:12:47;3.60;99.90
19397;DHT22;9834;48.076;11.878;2022-11-23T05:15:14;3.60;99.90
19397;DHT22;9834;48.076;11.878;2022-11-23T05:17:41;3.60;99.90
19397;DHT22;9834;48.076;11.878;2022-11-23T05:20:10;3.60;99.90
19397;DHT22;9834;48.076;11.878;2022-11-23T05:22:38;3.50;99.90
19397;DHT22;9834;48.076;11.878;2022-11-23T05:25:05;3.60;99.90
19397;DHT22;9834;48.076;11.878;2022-11-23T05:27:32;3.50;99.90
19397;DHT22;9834;48.076;11.878;2022-11-23T05:29:59;3.50;99.90
19397;DHT22;9834;48.076;11.878;2022-11-23T05:32:26;3.50;99.90
19397;DHT22;9834;48.076;11.878;2022-11-23T05:34:53;3.50;99.90
19397;DHT22;9834;48.076;11.878;2022-11-23T05:37:21;3.50;99.90
19397;DHT22;9834;48.076;11.878;2022-11-23T05:39:48;3.50;99.90
19397;DHT22;9834;48.076;11.878;2022-11-23T05:42:17;3.50;99.90
19397;DHT22;9834;48.076;11.878;2022-11-23T05:44:44;3.60;99.90
19397;DHT22;9834;48.076;11.878;2022-11-23T05:47:11;3.60;99.90
19397;DHT22;9834;48.076;11.878;2022-11-23T05:49:38;3.60;99.90
19397;DHT22;9834;48.076;11.878;2022-11-23T05:52:05;3.50;99.90
19397;DHT22;9834;48.076;11.878;2022-11-23T05:54:33;3.50;99.90
19397;DHT22;9834;48.076;11.878;2022-11-23T05:57:00;3.50;99.90
19397;DHT22;9834;48.076;11.878;2022-11-23T05:59:27;3.50;99.90
19397;DHT22;9834;48.076;11.878;2022-11-23T06:01:54;3.60;99.90
19397;DHT22;9834;48.076;11.878;2022-11-23T06:04:21;3.50;99.90
19397;DHT22;9834;48.076;11.878;2022-11-23T06:06:48;3.50;99.90
19397;DHT22;9834;48.076;11.878;2022-11-23T06:09:15;3.60;99.90
19397;DHT22;9834;48.076;11.878;2022-11-23T06:11:44;3.50;99.90
19397;DHT22;9834;48.076;11.878;2022-11-23T06:14:12;3.50;99.90
19397;DHT22;9834;48.076;11.878;2022-11-23T06:16:39;3.60;99.90
19397;DHT22;9834;48.076;11.878;2022-11-23T06:19:06;3.50;99.90
19397;DHT22;9834;48.076;11.878;2022-11-23T06:21:33;3.50;99.90
19397;DHT22;9834;48.076;11.878;2022-11-23T06:24:00;3.50;99.90
19397;DHT22;9834;48.076;11.878;2022-11-23T06:26:27;3.50;99.90
19397;DHT22;9834;48.076;11.878;2022-11-23T06:28:55;3.50;99.90
19397;DHT22;9834;48.076;11.878;2022-11-23T06:31:22;3.50;99.90
19397;DHT22;9834;48.076;11.878;2022-11-23T06:33:51;3.50;99.90
19397;DHT22;9834;48.076;11.878;2022-11-23T06:36:18;3.50;99.90
19397;DHT22;9834;48.076;11.878;2022-11-23T06:38:45;3.50;99.90
19397;DHT22;9834;48.076;11.878;2022-11-23T06:41:11;3.50;99.90
19397;DHT22;9834;48.076;11.878;2022-11-23T06:43:38;3.50;99.90
19397;DHT22;9834;48.076;11.878;2022-11-23T06:46:07;3.50;99.90
19397;DHT22;9834;48.076;11.878;2022-11-23T06:48:34;3.50;99.90
19397;DHT22;9834;48.076;11.878;2022-11-23T06:51:01;3.50;99.90
19397;DHT22;9834;48.076;11.878;2022-11-23T06:53:28;3.50;99.90
19397;DHT22;9834;48.076;11.878;2022-11-23T06:55:58;3.50;99.90
19397;DHT22;9834;48.076;11.878;2022-11-23T06:58:25;3.60;99.90
19397;DHT22;9834;48.076;11.878;2022-11-23T07:00:52;3.60;99.90
19397;DHT22;9834;48.076;11.878;2022-11-23T07:03:24;3.60;99.90
19397;DHT22;9834;48.076;11.878;2022-11-23T07:05:51;3.60;99.90
19397;DHT22;9834;48.076;11.878;2022-11-23T07:08:20;3.70;99.90
19397;DHT22;9834;48.076;11.878;2022-11-23T07:10:48;3.80;99.90
19397;DHT22;9834;48.076;11.878;2022-11-23T07:13:15;3.90;99.90
19397;DHT22;9834;48.076;11.878;2022-11-23T07:15:42;3.90;99.90
19397;DHT22;9834;48.076;11.878;2022-11-23T07:18:11;4.00;99.90
19397;DHT22;9834;48.076;11.878;2022-11-23T07:20:40;4.10;99.90
19397;DHT22;9834;48.076;11.878;2022-11-23T07:23:08;4.00;99.90
19397;DHT22;9834;48.076;11.878;2022-11-23T07:25:36;4.10;99.90
19397;DHT22;9834;48.076;11.878;2022-11-23T07:28:05;4.20;99.90
19397;DHT22;9834;48.076;11.878;2022-11-23T07:30:33;4.20;99.90
19397;DHT22;9834;48.076;11.878;2022-11-23T07:33:02;4.20;99.90
19397;DHT22;9834;48.076;11.878;2022-11-23T07:35:30;4.30;99.90
19397;DHT22;9834;48.076;11.878;2022-11-23T07:37:59;4.30;99.90
19397;DHT22;9834;48.076;11.878;2022-11-23T07:40:26;4.30;99.90
19397;DHT22;9834;48.076;11.878;2022-11-23T07:42:58;4.30;99.90
19397;DHT22;9834;48.076;11.878;2022-11-23T07:45:26;4.40;99.90
19397;DHT22;9834;48.076;11.878;2022-11-23T07:47:57;4.50;99.90
19397;DHT22;9834;48.076;11.878;2022-11-23T07:50:24;4.60;99.90
19397;DHT22;9834;48.076;11.878;2022-11-23T07:52:51;4.60;99.90
19397;DHT22;9834;48.076;11.878;2022-11-23T07:55:19;4.70;99.90
19397;DHT22;9834;48.076;11.878;2022-11-23T07:57:46;4.80;99.90
19397;DHT22;9834;48.076;11.878;2022-11-23T08:00:17;4.90;99.90
19397;DHT22;9834;48.076;11.878;2022-11-23T08:02:44;5.00;99.90
19397;DHT22;9834;48.076;11.878;2022-11-23T08:05:11;5.00;99.90
19397;DHT22;9834;48.076;11.878;2022-11-23T08:07:38;5.10;99.90
19397;DHT22;9834;48.076;11.878;2022-11-23T08:10:06;5.20;99.90
19397;DHT22;9834;48.076;11.878;2022-11-23T08:12:34;5.30;99.90
19397;DHT22;9834;48.076;11.878;2022-11-23T08:15:01;5.40;99.90
19397;DHT22;9834;48.076;11.878;2022-11-23T08:17:28;5.50;99.90
19397;DHT22;9834;48.076;11.878;2022-11-23T08:19:55;5.60;99.90
19397;DHT22;9834;48.076;11.878;2022-11-23T08:22:22;5.80;99.90
19397;DHT22;9834;48.076;11.878;2022-11-23T08:24:49;5.90;99.90
19397;DHT22;9834;48.076;11.878;2022-11-23T08:27:16;6.10;99.90
19397;DHT22;9834;48.076;11.878;2022-11-23T08:29:44;6.20;99.90
19397;DHT22;9834;48.076;11.878;2022-11-23T08:32:11;6.30;99.90
19397;DHT22;9834;48.076;11.878;2022-11-23T08:34:38;6.30;99.90
19397;DHT22;9834;48.076;11.878;2022-11-23T08:37:04;6.30;99.90
19397;DHT22;9834;48.076;11.878;2022-11-23T08:39:31;6.40;99.90
19397;DHT22;9834;48.076;11.878;2022-11-23T08:41:58;6.50;99.90
19397;DHT22;9834;48.076;11.878;2022-11-23T08:44:25;6.70;99.90
19397;DHT22;9834;48.076;11.878;2022-11-23T08:46:53;6.80;99.90
19397;DHT22;9834;48.076;11.878;2022-11-23T08:49:20;6.90;99.90
19397;DHT22;9834;48.076;11.878;2022-11-23T08:51:47;6.90;99.90
19397;DHT22;9834;48.076;11.878;2022-11-23T08:54:14;7.10;99.90
19397;DHT22;9834;48.076;11.878;2022-11-23T08:56:41;7.30;99.90
19397;DHT22;9834;48.076;11.878;2022-11-23T08:59:08;7.30;99.90
19397;DHT22;9834;48.076;11.878;2022-11-23T09:01:35;7.40;99.90
19397;DHT22;9834;48.076;11.878;2022-11-23T09:04:03;7.50;99.90
19397;DHT22;9834;48.076;11.878;2022-11-23T09:06:32;7.40;99.90
19397;DHT22;9834;48.076;11.878;2022-11-23T09:08:59;7.50;99.90
19397;DHT22;9834;48.076;11.878;2022-11-23T09:11:26;7.50;99.90
19397;DHT22;9834;48.076;11.878;2022-11-23T09:13:53;7.60;99.90
19397;DHT22;9834;48.076;11.878;2022-11-23T09:16:20;7.60;99.90
19397;DHT22;9834;48.076;11.878;2022-11-23T09:18:47;7.70;99.90
19397;DHT22;9834;48.076;11.878;2022-11-23T09:21:16;7.60;99.90
19397;DHT22;9834;48.076;11.878;2022-11-23T09:23:43;7.50;99.90
19397;DHT22;9834;48.076;11.878;2022-11-23T09:26:09;7.70;99.90
19397;DHT22;9834;48.076;11.878;2022-11-23T09:28:36;7.60;99.90
19397;DHT22;9834;48.076;11.878;2022-11-23T09:31:04;7.60;99.90
19397;DHT22;9834;48.076;11.878;2022-11-23T09:33:31;7.70;99.90
19397;DHT22;9834;48.076;11.878;2022-11-23T09:35:58;7.90;99.90
19397;DHT22;9834;48.076;11.878;2022-11-23T09:38:27;8.10;99.90
19397;DHT22;9834;48.076;11.878;2022-11-23T09:41:03;8.20;99.90
19397;DHT22;9834;48.076;11.878;2022-11-23T09:43:40;8.30;99.90
19397;DHT22;9834;48.076;11.878;2022-11-23T09:46:20;8.30;99.90
19397;DHT22;9834;48.076;11.878;2022-11-23T09:49:01;8.30;99.90
19397;DHT22;9834;48.076;11.878;2022-11-23T09:51:35;8.20;99.90
19397;DHT22;9834;48.076;11.878;2022-11-23T09:54:08;8.20;99.90
19397;DHT22;9834;48.076;11.878;2022-11-23T09:56:36;8.30;99.90
19397;DHT22;9834;48.076;11.878;2022-11-23T09:59:17;8.30;99.90
19397;DHT22;9834;48.076;11.878;2022-11-23T10:01:48;8.40;99.90
19397;DHT22;9834;48.076;11.878;2022-11-23T10:04:17;8.50;99.90
19397;DHT22;9834;48.076;11.878;2022-11-23T10:06:48;8.50;99.90
19397;DHT22;9834;48.076;11.878;2022-11-23T10:09:29;8.50;99.90
19397;DHT22;9834;48.076;11.878;2022-11-23T10:12:10;8.30;99.90
19397;DHT22;9834;48.076;11.878;2022-11-23T10:14:52;8.30;99.90
19397;DHT22;9834;48.076;11.878;2022-11-23T10:17:27;8.20;99.90
19397;DHT22;9834;48.076;11.878;2022-11-23T10:20:14;8.00;99.90
19397;DHT22;9834;48.076;11.878;2022-11-23T10:22:50;8.00;99.90
19397;DHT22;9834;48.076;11.878;2022-11-23T10:25:20;7.90;99.90
19397;DHT22;9834;48.076;11.878;2022-11-23T10:27:49;8.00;99.90
19397;DHT22;9834;48.076;11.878;2022-11-23T10:30:18;7.90;99.90
19397;DHT22;9834;48.076;11.878;2022-11-23T10:32:50;7.90;99.90
19397;DHT22;9834;48.076;11.878;2022-11-23T10:35:24;7.80;99.90
19397;DHT22;9834;48.076;11.878;2022-11-23T10:38:04;7.60;99.90
19397;DHT22;9834;48.076;11.878;2022-11-23T10:40:37;7.40;99.90
19397;DHT22;9834;48.076;11.878;2022-11-23T10:43:11;7.10;99.90
19397;DHT22;9834;48.076;11.878;2022-11-23T10:45:40;7.00;99.90
19397;DHT22;9834;48.076;11.878;2022-11-23T10:48:08;7.00;99.90
19397;DHT22;9834;48.076;11.878;2022-11-23T10:50:37;7.20;99.90
19397;DHT22;9834;48.076;11.878;2022-11-23T10:53:20;7.40;99.90
19397;DHT22;9834;48.076;11.878;2022-11-23T10:55:56;7.50;99.90
19397;DHT22;9834;48.076;11.878;2022-11-23T10:58:26;7.70;99.90
19397;DHT22;9834;48.076;11.878;2022-11-23T11:01:00;7.90;99.90
19397;DHT22;9834;48.076;11.878;2022-11-23T11:03:30;8.10;99.90
19397;DHT22;9834;48.076;11.878;2022-11-23T11:05:57;8.30;99.90
19397;DHT22;9834;48.076;11.878;2022-11-23T11:08:28;8.50;99.90
19397;DHT22;9834;48.076;11.878;2022-11-23T11:11:01;8.60;99.90
19397;DHT22;9834;48.076;11.878;2022-11-23T11:13:30;8.80;99.90
19397;DHT22;9834;48.076;11.878;2022-11-23T11:15:59;8.80;99.90
19397;DHT22;9834;48.076;11.878;2022-11-23T11:18:29;8.80;99.90
19397;DHT22;9834;48.076;11.878;2022-11-23T11:21:00;8.90;99.90
19397;DHT22;9834;48.076;11.878;2022-11-23T11:23:28;9.20;99.90
19397;DHT22;9834;48.076;11.878;2022-11-23T11:26:06;9.50;99.90
19397;DHT22;9834;48.076;11.878;2022-11-23T11:28:36;9.50;99.90
19397;DHT22;9834;48.076;11.878;2022-11-23T11:31:26;9.50;99.90
19397;DHT22;9834;48.076;11.878;2022-11-23T11:34:01;9.40;99.90
19397;DHT22;9834;48.076;11.878;2022-11-23T11:36:35;9.00;99.90
19397;DHT22;9834;48.076;11.878;2022-11-23T11:39:10;8.40;99.90
19397;DHT22;9834;48.076;11.878;2022-11-23T11:41:42;8.10;99.90
19397;DHT22;9834;48.076;11.878;2022-11-23T11:44:16;8.00;99.90
19397;DHT22;9834;48.076;11.878;2022-11-23T11:46:48;8.00;99.90
19397;DHT22;9834;48.076;11.878;2022-11-23T11:49:20;8.10;99.90
19397;DHT22;9834;48.076;11.878;2022-11-23T11:51:52;8.10;99.90
19397;DHT22;9834;48.076;11.878;2022-11-23T11:54:28;8.30;99.90
19397;DHT22;9834;48.076;11.878;2022-11-23T11:57:01;8.20;99.90
19397;DHT22;9834;48.076;11.878;2022-11-23T11:59:32;8.30;99.90
19397;DHT22;9834;48.076;11.878;2022-11-23T12:02:17;8.10;99.90
19397;DHT22;9834;48.076;11.878;2022-11-23T12:04:51;8.00;99.90
19397;DHT22;9834;48.076;11.878;2022-11-23T12:07:23;8.20;99.90
19397;DHT22;9834;48.076;11.878;2022-11-23T12:10:02;8.50;99.90
19397;DHT22;9834;48.076;11.878;2022-11-23T12:12:33;9.00;99.90
19397;DHT22;9834;48.076;11.878;2022-11-23T12:15:08;9.40;99.90
19397;DHT22;9834;48.076;11.878;2022-11-23T12:17:56;9.80;99.90
19397;DHT22;9834;48.076;11.878;2022-11-23T12:20:33;10.10;99.90
19397;DHT22;9834;48.076;11.878;2022-11-23T12:23:12;10.30;99.90
19397;DHT22;9834;48.076;11.878;2022-11-23T12:25:47;10.60;99.90
19397;DHT22;9834;48.076;11.878;2022-11-23T12:28:28;10.80;99.90
19397;DHT22;9834;48.076;11.878;2022-11-23T12:31:05;10.80;99.90
19397;DHT22;9834;48.076;11.878;2022-11-23T12:36:43;11.00;99.90
19397;DHT22;9834;48.076;11.878;2022-11-23T12:39:26;11.30;99.90
19397;DHT22;9834;48.076;11.878;2022-11-23T12:41:59;11.40;99.90
19397;DHT22;9834;48.076;11.878;2022-11-23T12:47:39;12.10;99.90
19397;DHT22;9834;48.076;11.878;2022-11-23T12:50:16;12.70;98.40
19397;DHT22;9834;48.076;11.878;2022-11-23T12:52:58;12.90;94.60
19397;DHT22;9834;48.076;11.878;2022-11-23T12:55:35;13.10;90.90
19397;DHT22;9834;48.076;11.878;2022-11-23T12:58:09;13.50;89.70
19397;DHT22;9834;48.076;11.878;2022-11-23T13:00:42;13.60;89.10
19397;DHT22;9834;48.076;11.878;2022-11-23T13:10:01;14.80;77.50
19397;DHT22;9834;48.076;11.878;2022-11-23T13:12:42;15.10;73.70
19397;DHT22;9834;48.076;11.878;2022-11-23T13:15:28;15.50;72.20
19397;DHT22;9834;48.076;11.878;2022-11-23T13:18:08;15.50;71.60
19397;DHT22;9834;48.076;11.878;2022-11-23T13:20:56;15.80;69.90
19397;DHT22;9834;48.076;11.878;2022-11-23T13:23:25;16.10;68.50
19397;DHT22;9834;48.076;11.878;2022-11-23T13:26:11;16.70;66.80
19397;DHT22;9834;48.076;11.878;2022-11-23T13:28:38;16.90;66.20
19397;DHT22;9834;48.076;11.878;2022-11-23T13:31:23;17.40;63.00
19397;DHT22;9834;48.076;11.878;2022-11-23T13:33:54;18.00;59.50
19397;DHT22;9834;48.076;11.878;2022-11-23T13:36:35;18.20;57.20
19397;DHT22;9834;48.076;11.878;2022-11-23T13:42:25;18.40;57.40
19397;DHT22;9834;48.076;11.878;2022-11-23T13:45:27;18.70;56.80
19397;DHT22;9834;48.076;11.878;2022-11-23T13:48:09;19.00;55.90
19397;DHT22;9834;48.076;11.878;2022-11-23T13:50:54;19.10;55.00
19397;DHT22;9834;48.076;11.878;2022-11-23T13:53:24;18.80;55.00
19397;DHT22;9834;48.076;11.878;2022-11-23T13:55:53;18.70;55.70
19397;DHT22;9834;48.076;11.878;2022-11-23T13:58:37;18.50;55.70
19397;DHT22;9834;48.076;11.878;2022-11-23T14:01:04;18.80;55.30
19397;DHT22;9834;48.076;11.878;2022-11-23T14:03:53;18.60;55.10
19397;DHT22;9834;48.076;11.878;2022-11-23T14:06:45;18.60;54.30
19397;DHT22;9834;48.076;11.878;2022-11-23T14:09:22;18.60;55.20
19397;DHT22;9834;48.076;11.878;2022-11-23T14:12:00;18.40;55.50
19397;DHT22;9834;48.076;11.878;2022-11-23T14:14:34;18.10;56.30
19397;DHT22;9834;48.076;11.878;2022-11-23T14:17:34;17.90;56.20
19397;DHT22;9834;48.076;11.878;2022-11-23T14:20:23;17.50;57.40
19397;DHT22;9834;48.076;11.878;2022-11-23T14:23:15;16.90;57.40
19397;DHT22;9834;48.076;11.878;2022-11-23T14:25:53;16.50;59.10
19397;DHT22;9834;48.076;11.878;2022-11-23T14:28:34;16.40;58.70
19397;DHT22;9834;48.076;11.878;2022-11-23T14:31:14;16.50;58.40
19397;DHT22;9834;48.076;11.878;2022-11-23T14:33:50;16.00;59.10
19397;DHT22;9834;48.076;11.878;2022-11-23T14:36:26;14.80;60.70
19397;DHT22;9834;48.076;11.878;2022-11-23T14:41:58;12.20;68.40
19397;DHT22;9834;48.076;11.878;2022-11-23T14:44:28;10.90;73.40
19397;DHT22;9834;48.076;11.878;2022-11-23T14:46:59;9.90;78.10
19397;DHT22;9834;48.076;11.878;2022-11-23T14:49:26;9.10;82.10
19397;DHT22;9834;48.076;11.878;2022-11-23T14:51:54;8.60;87.00
19397;DHT22;9834;48.076;11.878;2022-11-23T14:54:22;8.10;90.30
19397;DHT22;9834;48.076;11.878;2022-11-23T14:56:51;7.70;93.10
19397;DHT22;9834;48.076;11.878;2022-11-23T14:59:21;7.40;95.70
19397;DHT22;9834;48.076;11.878;2022-11-23T15:01:51;7.20;98.30
19397;DHT22;9834;48.076;11.878;2022-11-23T15:04:23;6.90;99.90
19397;DHT22;9834;48.076;11.878;2022-11-23T15:06:53;6.60;99.90
19397;DHT22;9834;48.076;11.878;2022-11-23T15:09:42;6.40;99.90
19397;DHT22;9834;48.076;11.878;2022-11-23T15:12:21;6.20;99.90
19397;DHT22;9834;48.076;11.878;2022-11-23T15:14:48;6.00;99.90
19397;DHT22;9834;48.076;11.878;2022-11-23T15:17:17;5.80;99.90
19397;DHT22;9834;48.076;11.878;2022-11-23T15:19:52;5.50;99.90
19397;DHT22;9834;48.076;11.878;2022-11-23T15:22:20;5.40;99.90
19397;DHT22;9834;48.076;11.878;2022-11-23T15:24:50;5.30;99.90
19397;DHT22;9834;48.076;11.878;2022-11-23T15:27:23;5.00;99.90
19397;DHT22;9834;48.076;11.878;2022-11-23T15:29:54;4.90;99.90
19397;DHT22;9834;48.076;11.878;2022-11-23T15:32:26;4.70;99.90
19397;DHT22;9834;48.076;11.878;2022-11-23T15:34:55;4.50;99.90
19397;DHT22;9834;48.076;11.878;2022-11-23T15:37:23;4.40;99.90
19397;DHT22;9834;48.076;11.878;2022-11-23T15:39:54;4.20;99.90
19397;DHT22;9834;48.076;11.878;2022-11-23T15:42:23;4.10;99.90
19397;DHT22;9834;48.076;11.878;2022-11-23T15:44:51;4.00;99.90
19397;DHT22;9834;48.076;11.878;2022-11-23T15:47:20;3.80;99.90
19397;DHT22;9834;48.076;11.878;2022-11-23T15:49:49;3.70;99.90
19397;DHT22;9834;48.076;11.878;2022-11-23T15:52:17;3.60;99.90
19397;DHT22;9834;48.076;11.878;2022-11-23T15:54:45;3.50;99.90
19397;DHT22;9834;48.076;11.878;2022-11-23T15:57:18;3.40;99.90
19397;DHT22;9834;48.076;11.878;2022-11-23T15:59:47;3.30;99.90
19397;DHT22;9834;48.076;11.878;2022-11-23T16:02:18;3.30;99.90
19397;DHT22;9834;48.076;11.878;2022-11-23T16:04:46;3.20;99.90
19397;DHT22;9834;48.076;11.878;2022-11-23T16:07:19;3.10;99.90
19397;DHT22;9834;48.076;11.878;2022-11-23T16:09:47;3.10;99.90
19397;DHT22;9834;48.076;11.878;2022-11-23T16:12:24;3.00;99.90
19397;DHT22;9834;48.076;11.878;2022-11-23T16:14:56;2.90;99.90
19397;DHT22;9834;48.076;11.878;2022-11-23T16:17:25;2.90;99.90
19397;DHT22;9834;48.076;11.878;2022-11-23T16:19:53;2.80;99.90
19397;DHT22;9834;48.076;11.878;2022-11-23T16:22:27;2.70;99.90
19397;DHT22;9834;48.076;11.878;2022-11-23T16:25:00;2.60;99.90